Time;durP1;ratioP1;P1;durP2;ratioP2;P2;SDS_P1;SDS_P2;PMS_P1;PMS_P2;Temp;Humidity;BMP_temperature;BMP_pressure;BME280_temperature;BME280_humidity;BME280_pressure;Samples;Min_cycle;Max_cycle;Signal;HPM_P1;HPM_P2
2022/04/14 00:02:06;;;;;;;10.27;7.83;;;10.60;84.60;;;;;;5098251;28;20195;-84
2022/04/14 00:04:35;;;;;;;9.30;7.53;;;10.60;84.10;;;;;;5080745;28;20218;-83
2022/04/14 00:07:04;;;;;;;10.27;9.17;;;10.60;83.60;;;;;;5083520;28;20216;-83
2022/04/14 00:09:32;;;;;;;15.10;10.57;;;10.50;83.30;;;;;;5079841;28;20657;-83
2022/04/14 00:11:59;;;;;;;11.30;10.10;;;10.50;83.40;;;;;;5097451;28;20207;-84
2022/04/14 00:14:26;;;;;;;13.07;10.40;;;10.50;84.00;;;;;;5078163;28;20213;-84
2022/04/14 00:16:53;;;;;;;10.40;9.30;;;10.50;84.40;;;;;;5079889;28;20236;-84
2022/04/14 00:19:20;;;;;;;15.47;9.27;;;10.50;84.50;;;;;;5077247;28;20230;-85
2022/04/14 00:21:48;;;;;;;14.67;10.60;;;10.50;83.00;;;;;;5076889;28;20211;-85
2022/04/14 00:24:15;;;;;;;15.63;11.60;;;10.40;83.10;;;;;;5093970;28;20238;-84
2022/04/14 00:26:44;;;;;;;13.27;11.87;;;10.20;84.10;;;;;;5077171;28;20218;-85
2022/04/14 00:29:11;;;;;;;13.60;12.23;;;10.20;85.00;;;;;;5085639;28;20275;-86
2022/04/14 00:31:38;;;;;;;15.63;13.77;;;10.10;85.80;;;;;;5065530;28;20238;-82
2022/04/14 00:34:06;;;;;;;15.47;13.53;;;10.20;86.50;;;;;;5093345;28;20308;-82
2022/04/14 00:36:33;;;;;;;22.77;17.30;;;10.20;87.70;;;;;;5070439;28;20202;-82
2022/04/14 00:39:00;;;;;;;17.63;14.17;;;10.30;89.00;;;;;;5077095;28;20215;-85
2022/04/14 00:41:28;;;;;;;19.03;13.33;;;10.30;89.40;;;;;;5078401;28;20227;-85
2022/04/14 00:43:55;;;;;;;20.93;13.57;;;10.30;89.50;;;;;;5066548;28;20204;-85
2022/04/14 00:46:22;;;;;;;16.40;14.47;;;10.30;89.40;;;;;;5081873;28;20196;-85
2022/04/14 00:48:52;;;;;;;14.53;12.93;;;10.30;89.20;;;;;;5082765;28;20266;-85
2022/04/14 00:51:20;;;;;;;17.07;14.40;;;10.30;89.40;;;;;;5083325;28;20227;-83
2022/04/14 00:53:47;;;;;;;14.23;11.33;;;10.20;89.40;;;;;;5084758;28;20241;-85
2022/04/14 00:56:15;;;;;;;12.73;10.63;;;10.20;89.20;;;;;;5081858;28;20605;-85
2022/04/14 00:58:42;;;;;;;11.63;10.47;;;10.20;88.30;;;;;;5079913;28;20201;-83
2022/04/14 01:01:12;;;;;;;12.67;11.07;;;10.20;86.90;;;;;;5079921;28;20211;-83
2022/04/14 01:03:42;;;;;;;17.60;12.10;;;10.10;85.90;;;;;;5081411;28;20320;-83
2022/04/14 01:06:10;;;;;;;12.63;11.33;;;10.10;85.70;;;;;;5080445;28;20281;-83
2022/04/14 01:08:38;;;;;;;16.27;13.50;;;10.10;85.60;;;;;;5097284;28;20198;-82
2022/04/14 01:11:05;;;;;;;16.83;13.97;;;10.00;85.80;;;;;;5077508;28;20232;-82
2022/04/14 01:13:32;;;;;;;17.20;14.03;;;10.00;86.20;;;;;;5080606;28;20256;-82
2022/04/14 01:16:00;;;;;;;15.10;13.30;;;10.00;86.70;;;;;;5076497;28;20934;-84
2022/04/14 01:18:27;;;;;;;14.30;11.33;;;9.90;87.20;;;;;;5060931;28;20251;-85
2022/04/14 01:20:55;;;;;;;12.17;9.87;;;10.00;87.50;;;;;;5080454;28;20227;-85
2022/04/14 01:23:52;;;;;;;12.60;9.80;;;10.00;87.00;;;;;;5077643;28;20226;-85
2022/04/14 01:26:20;;;;;;;16.00;13.77;;;10.00;86.00;;;;;;5064844;28;20201;-85
2022/04/14 01:28:47;;;;;;;15.00;12.23;;;9.90;86.10;;;;;;5075420;28;20229;-84
2022/04/14 01:31:24;;;;;;;13.77;11.00;;;9.90;86.70;;;;;;5091672;28;20223;-83
2022/04/14 01:33:51;;;;;;;12.87;10.53;;;9.90;86.50;;;;;;5093334;28;21673;-85
2022/04/14 01:36:19;;;;;;;13.33;9.57;;;9.90;86.00;;;;;;5078277;28;20649;-85
2022/04/14 01:38:47;;;;;;;10.83;9.73;;;9.90;85.60;;;;;;5079668;28;20194;-82
2022/04/14 01:41:14;;;;;;;9.90;8.67;;;9.80;85.70;;;;;;5080686;28;20206;-83
2022/04/14 01:43:43;;;;;;;9.93;8.93;;;9.80;85.80;;;;;;5096745;28;20281;-84
2022/04/14 01:46:10;;;;;;;12.43;8.07;;;9.80;85.40;;;;;;5080935;28;20243;-85
2022/04/14 01:48:44;;;;;;;11.20;8.93;;;9.70;84.90;;;;;;5095240;28;20202;-83
2022/04/14 01:51:11;;;;;;;11.27;10.07;;;9.70;84.60;;;;;;5090442;28;20213;-85
2022/04/14 01:53:38;;;;;;;12.27;10.87;;;9.70;84.70;;;;;;5077398;28;20289;-85
2022/04/14 01:56:06;;;;;;;15.60;12.17;;;9.60;84.90;;;;;;5074289;28;20213;-85
2022/04/14 01:58:34;;;;;;;17.33;13.93;;;9.60;85.20;;;;;;5094660;28;20214;-85
2022/04/14 02:01:01;;;;;;;21.43;15.87;;;9.60;85.80;;;;;;5061284;28;20213;-84
2022/04/14 02:03:29;;;;;;;18.07;14.70;;;9.60;86.60;;;;;;5076640;28;20203;-85
2022/04/14 02:05:56;;;;;;;15.90;14.07;;;9.60;87.40;;;;;;5062176;28;20197;-85
2022/04/14 02:08:23;;;;;;;16.77;10.17;;;9.60;87.90;;;;;;5079831;28;20342;-83
2022/04/14 02:10:51;;;;;;;14.60;11.43;;;9.60;87.00;;;;;;5075537;28;20213;-83
2022/04/14 02:13:18;;;;;;;16.90;14.03;;;9.50;86.40;;;;;;5076412;28;20282;-85
2022/04/14 02:15:45;;;;;;;7.73;6.43;;;9.50;86.80;;;;;;5078551;28;20294;-85
2022/04/14 02:18:13;;;;;;;15.87;6.93;;;9.50;87.00;;;;;;5056185;28;20319;-83
2022/04/14 02:20:40;;;;;;;123.57;11.30;;;9.40;87.60;;;;;;5062932;28;20230;-83
2022/04/14 02:23:08;;;;;;;8.37;6.70;;;9.40;87.20;;;;;;5059320;28;20193;-83
2022/04/14 02:25:35;;;;;;;7.10;6.40;;;9.30;87.40;;;;;;5044026;28;20271;-84
2022/04/14 02:28:03;;;;;;;10.13;7.67;;;9.30;86.60;;;;;;5059983;28;20232;-83
2022/04/14 02:30:30;;;;;;;9.70;8.70;;;9.20;86.30;;;;;;5045477;28;20235;-83
2022/04/14 02:32:58;;;;;;;23.07;20.20;;;9.10;86.30;;;;;;5045442;28;20210;-84
2022/04/14 02:35:25;;;;;;;20.17;16.97;;;9.00;86.30;;;;;;5063783;28;20199;-83
2022/04/14 02:37:55;;;;;;;21.93;17.73;;;9.00;86.20;;;;;;5077938;28;20206;-83
2022/04/14 02:40:25;;;;;;;12.50;11.30;;;9.00;86.10;;;;;;5061550;28;21133;-83
2022/04/14 02:42:54;;;;;;;13.57;12.17;;;8.90;85.90;;;;;;5061770;28;20203;-84
2022/04/14 02:45:22;;;;;;;12.20;10.90;;;8.90;85.60;;;;;;5059000;28;20264;-83
2022/04/14 02:47:49;;;;;;;11.27;10.13;;;8.90;85.70;;;;;;5079467;28;20204;-83
2022/04/14 02:50:20;;;;;;;11.23;9.67;;;8.90;85.60;;;;;;5083656;28;20248;-85
2022/04/14 02:52:48;;;;;;;11.43;10.23;;;8.90;85.40;;;;;;5062409;28;20327;-87
2022/04/14 02:55:20;;;;;;;14.00;12.07;;;8.90;85.30;;;;;;5047795;28;20202;-86
2022/04/14 02:57:51;;;;;;;13.53;12.10;;;8.90;85.40;;;;;;5051499;28;20234;-88
2022/04/14 03:00:18;;;;;;;9.77;8.77;;;8.80;85.40;;;;;;5047304;28;20236;-86
2022/04/14 03:02:45;;;;;;;10.80;6.97;;;8.80;85.30;;;;;;5080729;28;20206;-86
2022/04/14 03:05:22;;;;;;;6.40;5.50;;;8.80;85.10;;;;;;5066339;28;20233;-85
2022/04/14 03:07:49;;;;;;;3.70;3.43;;;8.80;85.10;;;;;;5063027;28;20222;-84
2022/04/14 03:10:16;;;;;;;5.73;4.57;;;8.80;85.30;;;;;;5064846;28;20233;-86
2022/04/14 03:12:46;;;;;;;11.07;8.90;;;8.80;85.60;;;;;;5067014;28;20283;-86
2022/04/14 03:15:14;;;;;;;8.20;7.40;;;8.80;85.80;;;;;;5080664;28;20261;-86
2022/04/14 03:17:42;;;;;;;10.20;9.20;;;8.70;86.10;;;;;;5075632;28;20249;-86
2022/04/14 03:20:10;;;;;;;13.30;10.97;;;8.70;86.30;;;;;;5067264;28;20308;-83
2022/04/14 03:22:38;;;;;;;15.53;12.63;;;8.70;86.60;;;;;;5098625;28;20193;-84
2022/04/14 03:25:07;;;;;;;18.00;14.93;;;8.80;87.10;;;;;;5065583;28;20197;-83
2022/04/14 03:27:35;;;;;;;23.63;14.03;;;8.80;87.80;;;;;;5077624;28;20189;-85
2022/04/14 03:30:03;;;;;;;14.73;12.70;;;8.80;88.30;;;;;;5092752;28;20285;-85
2022/04/14 03:32:30;;;;;;;16.73;12.43;;;8.90;88.70;;;;;;5060067;28;20197;-83
2022/04/14 03:35:03;;;;;;;22.43;13.23;;;8.90;88.90;;;;;;5094976;28;20209;-87
2022/04/14 03:37:30;;;;;;;14.33;11.47;;;8.90;89.00;;;;;;5080063;28;20259;-86
2022/04/14 03:39:57;;;;;;;18.83;11.83;;;8.90;88.80;;;;;;5097395;28;20213;-83
2022/04/14 03:42:26;;;;;;;14.23;11.67;;;8.90;88.60;;;;;;5079952;28;20189;-83
2022/04/14 03:44:53;;;;;;;13.63;12.00;;;8.90;88.60;;;;;;5074186;28;20268;-84
2022/04/14 03:47:22;;;;;;;17.37;13.63;;;8.90;88.70;;;;;;5077537;28;20198;-84
2022/04/14 03:49:50;;;;;;;18.70;14.37;;;8.80;88.60;;;;;;5078967;28;21697;-85
2022/04/14 03:52:17;;;;;;;18.00;13.67;;;8.90;88.50;;;;;;5063618;28;20216;-84
2022/04/14 03:54:45;;;;;;;16.73;13.10;;;8.90;88.50;;;;;;5079920;28;20225;-83
2022/04/14 03:57:12;;;;;;;15.83;12.93;;;8.80;88.40;;;;;;5080455;28;20646;-84
2022/04/14 03:59:40;;;;;;;16.30;12.33;;;8.80;88.40;;;;;;5060567;28;20240;-84
2022/04/14 04:02:07;;;;;;;17.20;13.33;;;8.80;88.40;;;;;;5077632;28;20529;-84
2022/04/14 04:04:34;;;;;;;16.63;12.60;;;8.70;88.50;;;;;;5080922;28;20196;-84
2022/04/14 04:07:02;;;;;;;13.30;11.00;;;8.70;88.60;;;;;;5079129;28;20999;-85
2022/04/14 04:09:32;;;;;;;14.60;13.00;;;8.70;88.60;;;;;;5094361;28;20206;-84
2022/04/14 04:12:00;;;;;;;16.77;12.90;;;8.70;88.30;;;;;;5098608;28;20197;-83
2022/04/14 04:14:27;;;;;;;15.13;12.00;;;8.60;88.20;;;;;;5096822;28;20698;-84
2022/04/14 04:17:00;;;;;;;15.37;11.77;;;8.60;88.20;;;;;;5079931;28;20257;-86
2022/04/14 04:19:27;;;;;;;18.47;13.00;;;8.50;88.30;;;;;;5083203;28;20203;-83
2022/04/14 04:21:55;;;;;;;14.83;11.27;;;8.50;88.50;;;;;;5096732;28;20304;-83
2022/04/14 04:24:23;;;;;;;17.47;11.87;;;8.50;88.60;;;;;;5065714;28;20232;-86
2022/04/14 04:26:50;;;;;;;13.00;10.87;;;8.50;88.60;;;;;;5096811;28;20208;-85
2022/04/14 04:29:18;;;;;;;17.80;11.40;;;8.40;88.60;;;;;;5080597;28;20204;-84
2022/04/14 04:31:45;;;;;;;15.80;11.40;;;8.40;88.60;;;;;;5086295;28;20213;-85
2022/04/14 04:34:13;;;;;;;16.93;12.67;;;8.40;88.80;;;;;;5083421;28;20201;-86
2022/04/14 04:36:40;;;;;;;15.67;11.53;;;8.40;89.10;;;;;;5097423;28;20248;-84
2022/04/14 04:39:08;;;;;;;18.87;11.23;;;8.40;89.20;;;;;;5097755;28;20205;-84
2022/04/14 04:41:35;;;;;;;27.77;12.60;;;8.40;89.10;;;;;;5080584;28;20256;-83
2022/04/14 04:44:04;;;;;;;18.30;12.83;;;8.40;89.20;;;;;;5069260;28;20213;-84
2022/04/14 04:46:32;;;;;;;20.73;11.67;;;8.40;89.50;;;;;;5082096;28;20292;-84
2022/04/14 04:48:59;;;;;;;26.80;11.80;;;8.50;89.80;;;;;;5098389;28;20656;-84
2022/04/14 04:51:27;;;;;;;17.70;11.60;;;8.50;90.10;;;;;;5081318;28;20218;-85
2022/04/14 04:53:55;;;;;;;20.87;10.90;;;8.50;89.60;;;;;;5081263;28;20304;-86
2022/04/14 04:56:22;;;;;;;20.23;11.90;;;8.50;89.40;;;;;;5099241;28;20216;-85
2022/04/14 04:58:49;;;;;;;19.23;11.13;;;8.60;89.30;;;;;;5065106;28;20308;-85
2022/04/14 05:01:17;;;;;;;20.30;12.87;;;8.60;89.20;;;;;;5083443;28;20225;-85
2022/04/14 05:03:44;;;;;;;19.07;12.60;;;8.60;89.30;;;;;;5100106;28;20213;-88
2022/04/14 05:06:11;;;;;;;15.53;12.13;;;8.70;89.40;;;;;;5084071;28;20293;-85
2022/04/14 05:08:38;;;;;;;18.40;12.20;;;8.70;89.40;;;;;;5082479;28;20634;-85
2022/04/14 05:11:08;;;;;;;19.13;13.33;;;8.80;89.40;;;;;;5098616;28;20208;-86
2022/04/14 05:13:35;;;;;;;16.37;13.60;;;8.90;89.20;;;;;;5096975;28;20218;-86
2022/04/14 05:16:04;;;;;;;19.33;13.37;;;9.10;89.10;;;;;;5079391;28;20238;-85
2022/04/14 05:18:33;;;;;;;18.57;12.40;;;9.30;88.60;;;;;;5080812;28;20210;-85
2022/04/14 05:21:01;;;;;;;18.30;11.87;;;9.60;87.60;;;;;;5083233;28;20253;-85
2022/04/14 05:23:29;;;;;;;17.17;13.03;;;9.80;86.50;;;;;;5079327;28;20231;-85
2022/04/14 05:25:56;;;;;;;18.30;12.27;;;10.10;85.50;;;;;;5080006;28;20216;-85
2022/04/14 05:28:23;;;;;;;22.70;13.70;;;10.40;84.50;;;;;;5092349;28;20197;-85
2022/04/14 05:30:52;;;;;;;22.87;12.73;;;10.70;84.00;;;;;;5076537;28;20301;-86
2022/04/14 05:33:19;;;;;;;19.40;13.30;;;10.90;83.60;;;;;;5076684;28;20221;-85
2022/04/14 05:35:46;;;;;;;16.80;13.80;;;11.10;83.00;;;;;;5077951;28;20803;-85
2022/04/14 05:38:14;;;;;;;16.10;13.57;;;11.10;82.80;;;;;;5076307;28;20206;-84
2022/04/14 05:40:45;;;;;;;16.90;13.57;;;11.10;83.10;;;;;;5093601;28;20777;-84
2022/04/14 05:43:20;;;;;;;15.50;13.90;;;11.00;83.60;;;;;;5075209;28;20267;-85
2022/04/14 05:45:48;;;;;;;19.80;13.70;;;11.00;84.20;;;;;;5076208;28;20237;-85
2022/04/14 05:48:16;;;;;;;23.77;13.70;;;11.00;85.30;;;;;;5079459;28;20194;-85
2022/04/14 05:50:45;;;;;;;22.27;14.37;;;11.00;85.00;;;;;;5080098;28;20707;-84
2022/04/14 05:53:13;;;;;;;17.20;13.10;;;11.10;85.30;;;;;;5096488;28;20239;-84
2022/04/14 05:55:41;;;;;;;17.07;12.73;;;11.20;85.40;;;;;;5077127;28;20222;-84
2022/04/14 05:58:08;;;;;;;17.60;13.97;;;11.30;85.40;;;;;;5079595;28;20251;-85
2022/04/14 06:01:36;;;;;;;14.43;12.93;;;11.40;85.30;;;;;;5072411;28;20253;-85
2022/04/14 06:05:12;;;;;;;17.70;13.13;;;11.60;85.20;;;;;;5095906;28;20196;-84
2022/04/14 06:07:40;;;;;;;18.63;12.57;;;11.80;84.60;;;;;;5093900;28;20259;-84
2022/04/14 06:10:08;;;;;;;17.90;12.83;;;12.00;84.00;;;;;;5094261;28;20200;-84
2022/04/14 06:12:35;;;;;;;15.23;12.17;;;12.20;83.40;;;;;;5072042;28;20215;-83
2022/04/14 06:15:02;;;;;;;13.97;11.07;;;12.40;83.00;;;;;;5076473;28;20201;-83
2022/04/14 06:17:30;;;;;;;20.83;12.00;;;12.60;82.60;;;;;;5093392;28;20254;-83
2022/04/14 06:19:58;;;;;;;17.47;12.50;;;12.70;82.00;;;;;;5078024;28;20725;-82
2022/04/14 06:22:26;;;;;;;17.23;13.00;;;12.90;81.40;;;;;;5061296;28;20229;-82
2022/04/14 06:24:57;;;;;;;16.63;13.87;;;13.00;80.80;;;;;;5077946;28;20199;-82
2022/04/14 06:27:25;;;;;;;19.60;12.90;;;13.10;80.30;;;;;;5078466;28;20231;-83
2022/04/14 06:29:52;;;;;;;15.43;13.37;;;13.20;79.70;;;;;;5096873;28;20644;-83
2022/04/14 06:32:19;;;;;;;19.40;13.60;;;13.30;79.40;;;;;;5079949;28;20207;-83
2022/04/14 06:34:49;;;;;;;15.97;13.90;;;13.50;79.30;;;;;;5096171;28;20204;-84
2022/04/14 06:37:17;;;;;;;17.63;14.27;;;13.60;79.00;;;;;;5094339;28;21092;-83
2022/04/14 06:39:44;;;;;;;18.03;14.37;;;13.70;78.50;;;;;;5077267;28;20270;-82
2022/04/14 06:42:11;;;;;;;18.17;14.93;;;13.80;78.40;;;;;;5079463;28;20261;-83
2022/04/14 06:44:38;;;;;;;16.03;14.13;;;14.00;78.30;;;;;;5076519;28;20204;-82
2022/04/14 06:47:06;;;;;;;23.87;15.77;;;14.10;78.20;;;;;;5079311;28;20220;-81
2022/04/14 06:49:34;;;;;;;17.40;13.90;;;14.20;77.70;;;;;;5083200;28;20204;-83
2022/04/14 06:52:02;;;;;;;16.63;15.00;;;14.40;77.30;;;;;;5081754;28;20287;-83
2022/04/14 06:54:29;;;;;;;18.27;15.40;;;14.60;76.80;;;;;;5067187;28;20543;-84
2022/04/14 06:56:56;;;;;;;19.23;15.43;;;14.70;76.70;;;;;;5098109;28;20228;-83
2022/04/14 06:59:24;;;;;;;23.73;16.00;;;14.80;76.30;;;;;;5100833;28;20201;-84
2022/04/14 07:01:53;;;;;;;19.53;15.40;;;14.90;76.00;;;;;;5095954;28;20271;-83
2022/04/14 07:04:21;;;;;;;16.87;14.70;;;15.00;75.30;;;;;;5064963;28;20234;-84
2022/04/14 07:06:48;;;;;;;17.87;14.70;;;15.20;75.10;;;;;;5082356;28;20200;-84
2022/04/14 07:09:16;;;;;;;16.13;13.87;;;15.20;74.50;;;;;;5082872;28;20244;-84
2022/04/14 07:11:43;;;;;;;17.90;14.73;;;15.40;73.80;;;;;;5080874;28;20206;-83
2022/04/14 07:14:10;;;;;;;16.60;14.10;;;15.50;74.00;;;;;;5099374;28;20224;-83
2022/04/14 07:16:37;;;;;;;17.70;15.00;;;15.60;73.40;;;;;;5081920;28;20232;-83
2022/04/14 07:19:10;;;;;;;17.90;14.67;;;15.60;72.80;;;;;;5083586;28;20227;-82
2022/04/14 07:21:37;;;;;;;18.47;15.17;;;15.80;72.90;;;;;;5084811;28;20213;-84
2022/04/14 07:24:05;;;;;;;25.23;14.97;;;15.90;72.40;;;;;;5102672;28;20427;-83
2022/04/14 07:26:32;;;;;;;20.37;15.60;;;16.00;72.20;;;;;;5102347;28;20223;-83
2022/04/14 07:28:59;;;;;;;16.80;14.07;;;16.10;72.00;;;;;;5062070;28;20205;-83
2022/04/14 07:31:27;;;;;;;20.60;14.53;;;16.20;71.20;;;;;;5080534;28;20228;-83
2022/04/14 07:33:54;;;;;;;17.07;14.63;;;16.20;70.70;;;;;;5079641;28;20205;-83
2022/04/14 07:36:23;;;;;;;18.20;15.63;;;16.30;71.00;;;;;;5099330;28;20646;-82
2022/04/14 07:39:02;;;;;;;15.93;13.97;;;16.40;71.30;;;;;;5081511;28;20236;-83
2022/04/14 07:41:29;;;;;;;18.30;15.23;;;16.50;71.10;;;;;;5080099;28;20314;-82
2022/04/14 07:43:58;;;;;;;24.47;15.17;;;16.60;70.80;;;;;;5099862;28;20567;-84
2022/04/14 07:46:35;;;;;;;19.63;14.07;;;16.80;70.90;;;;;;5058615;28;20205;-84
2022/04/14 07:49:03;;;;;;;16.10;12.67;;;17.00;71.00;;;;;;5083276;28;20205;-82
2022/04/14 07:51:30;;;;;;;15.70;13.57;;;17.30;70.80;;;;;;5101412;28;20206;-83
2022/04/14 07:53:58;;;;;;;16.00;13.13;;;17.50;69.90;;;;;;5083538;28;20209;-83
2022/04/14 07:56:25;;;;;;;16.87;14.20;;;17.80;69.10;;;;;;5084570;28;20253;-82
2022/04/14 07:58:52;;;;;;;14.70;13.20;;;18.00;67.90;;;;;;5061843;28;20217;-83
2022/04/14 08:01:20;;;;;;;14.87;13.33;;;18.20;67.10;;;;;;5091201;28;20209;-83
2022/04/14 08:03:48;;;;;;;14.03;12.53;;;18.40;66.20;;;;;;5077235;28;20192;-83
2022/04/14 08:06:15;;;;;;;17.00;13.03;;;18.60;65.40;;;;;;5094645;28;20214;-82
2022/04/14 08:08:42;;;;;;;15.87;11.83;;;18.70;64.30;;;;;;5076664;28;20207;-82
2022/04/14 08:11:10;;;;;;;18.27;11.80;;;18.90;63.70;;;;;;5093586;28;20342;-83
2022/04/14 08:13:38;;;;;;;13.47;11.63;;;19.00;62.80;;;;;;5095259;28;20720;-82
2022/04/14 08:16:06;;;;;;;12.77;10.67;;;19.10;62.30;;;;;;5077249;28;20250;-82
2022/04/14 08:18:35;;;;;;;14.97;11.50;;;19.20;62.30;;;;;;5093437;28;20260;-82
2022/04/14 08:21:03;;;;;;;15.27;12.40;;;19.40;61.50;;;;;;5078146;28;20297;-82
2022/04/14 08:23:31;;;;;;;11.90;10.47;;;19.50;60.70;;;;;;5075955;28;20210;-83
2022/04/14 08:26:01;;;;;;;12.07;10.80;;;19.60;60.90;;;;;;5078075;28;20294;-83
2022/04/14 08:28:43;;;;;;;19.77;11.90;;;19.70;60.10;;;;;;5096536;28;20222;-82
2022/04/14 08:31:11;;;;;;;18.23;11.23;;;19.90;59.50;;;;;;5079010;28;20313;-83
2022/04/14 08:33:39;;;;;;;17.67;11.97;;;19.90;58.60;;;;;;5095928;28;20214;-83
2022/04/14 08:36:12;;;;;;;12.20;10.93;;;20.00;58.90;;;;;;5095461;28;20210;-83
2022/04/14 08:38:43;;;;;;;10.50;9.50;;;20.00;57.60;;;;;;5095991;28;20278;-82
2022/04/14 08:41:16;;;;;;;12.40;11.07;;;20.00;56.50;;;;;;5093894;28;20620;-82
2022/04/14 08:43:52;;;;;;;11.03;10.00;;;20.00;56.40;;;;;;5089743;28;20284;-81
2022/04/14 08:46:20;;;;;;;14.30;10.13;;;20.10;56.10;;;;;;5078656;28;20636;-82
2022/04/14 08:48:52;;;;;;;11.43;10.07;;;20.10;56.60;;;;;;5080250;28;20216;-81
2022/04/14 08:51:20;;;;;;;11.40;9.30;;;20.20;56.80;;;;;;5074905;28;20212;-82
2022/04/14 08:53:51;;;;;;;11.03;9.07;;;20.40;56.90;;;;;;5078547;28;20205;-81
2022/04/14 08:56:23;;;;;;;10.30;8.13;;;20.60;55.20;;;;;;5083648;28;20692;-81
2022/04/14 08:58:55;;;;;;;10.73;9.00;;;20.80;55.10;;;;;;5077287;28;20642;-83
2022/04/14 09:01:26;;;;;;;10.03;7.53;;;21.00;54.50;;;;;;5093028;28;20323;-81
2022/04/14 09:03:56;;;;;;;11.70;8.43;;;21.10;52.00;;;;;;5078950;28;20205;-82
2022/04/14 09:06:27;;;;;;;13.57;9.33;;;21.20;52.40;;;;;;5098621;28;20670;-81
2022/04/14 09:08:59;;;;;;;12.20;8.77;;;21.30;52.40;;;;;;5084444;28;20215;-81
2022/04/14 09:11:33;;;;;;;12.40;9.17;;;21.40;51.60;;;;;;5077806;28;20926;-83
2022/04/14 09:14:01;;;;;;;12.33;8.63;;;21.50;51.00;;;;;;5079565;28;20208;-83
2022/04/14 09:16:31;;;;;;;10.53;9.03;;;21.50;50.30;;;;;;5076416;28;20237;-82
2022/04/14 09:19:03;;;;;;;11.60;8.30;;;21.40;49.10;;;;;;5095219;28;20284;-82
2022/04/14 09:21:31;;;;;;;11.57;8.27;;;21.40;50.30;;;;;;5078067;28;20213;-82
2022/04/14 09:23:59;;;;;;;8.73;7.83;;;21.40;50.70;;;;;;5096801;28;20216;-82
2022/04/14 09:26:28;;;;;;;10.50;7.93;;;21.50;50.30;;;;;;5061632;28;20211;-82
2022/04/14 09:29:08;;;;;;;13.60;8.27;;;21.70;49.10;;;;;;5098341;28;20269;-83
2022/04/14 09:31:49;;;;;;;18.03;8.57;;;21.90;47.50;;;;;;5094629;28;20211;-82
2022/04/14 09:34:19;;;;;;;13.90;8.87;;;21.90;46.90;;;;;;5093117;28;20253;-82
2022/04/14 09:37:07;;;;;;;15.57;9.83;;;21.90;46.10;;;;;;5074489;28;20232;-82
2022/04/14 09:39:55;;;;;;;16.17;8.87;;;21.90;45.30;;;;;;5060600;28;20212;-82
2022/04/14 09:42:27;;;;;;;16.07;9.47;;;21.90;45.90;;;;;;5092149;28;20566;-82
2022/04/14 09:44:55;;;;;;;17.73;9.83;;;21.80;44.70;;;;;;5093826;28;20254;-82
2022/04/14 09:47:24;;;;;;;17.37;9.50;;;21.80;45.60;;;;;;5062599;28;20590;-83
2022/04/14 09:49:51;;;;;;;18.20;9.73;;;21.90;46.30;;;;;;5068940;28;20277;-83
2022/04/14 09:52:19;;;;;;;17.70;10.73;;;21.90;45.10;;;;;;5082348;28;20212;-80
2022/04/14 09:54:49;;;;;;;23.93;10.90;;;22.00;46.80;;;;;;5067060;28;20582;-80
2022/04/14 09:57:18;;;;;;;19.50;9.50;;;22.20;46.40;;;;;;5085321;28;20212;-82
2022/04/14 09:59:45;;;;;;;16.40;9.57;;;22.40;47.00;;;;;;5081253;28;20219;-81
2022/04/14 10:02:14;;;;;;;19.20;9.90;;;22.60;47.20;;;;;;5080245;28;20221;-82
2022/04/14 10:04:48;;;;;;;18.30;9.20;;;22.80;47.50;;;;;;5082629;28;20278;-81
2022/04/14 10:07:17;;;;;;;15.93;10.23;;;23.00;46.50;;;;;;5085082;28;20209;-82
2022/04/14 10:09:50;;;;;;;15.50;9.27;;;23.10;45.70;;;;;;5084764;28;20201;-80
2022/04/14 10:12:18;;;;;;;17.23;9.07;;;23.20;45.80;;;;;;5101671;28;20199;-82
2022/04/14 10:15:04;;;;;;;17.47;9.27;;;23.30;46.90;;;;;;5068237;28;20204;-81
2022/04/14 10:17:40;;;;;;;18.17;10.17;;;23.40;46.60;;;;;;5072455;28;20234;-83
2022/04/14 10:20:14;;;;;;;20.77;10.03;;;23.50;45.30;;;;;;5060877;28;20629;-82
2022/04/14 10:22:42;;;;;;;16.83;9.37;;;23.60;46.00;;;;;;5067155;28;20232;-79
2022/04/14 10:25:09;;;;;;;23.17;10.10;;;23.60;46.70;;;;;;5060496;28;20220;-80
2022/04/14 10:27:37;;;;;;;15.00;8.73;;;23.60;46.00;;;;;;5080220;28;20557;-81
2022/04/14 10:30:20;;;;;;;14.93;8.43;;;23.70;45.20;;;;;;5067060;28;20224;-83
2022/04/14 10:32:48;;;;;;;16.67;9.10;;;23.90;45.40;;;;;;5047757;28;20207;-83
2022/04/14 10:35:15;;;;;;;17.63;8.07;;;23.90;42.90;;;;;;5066229;28;20695;-82
2022/04/14 10:37:48;;;;;;;19.47;8.40;;;23.90;42.30;;;;;;5062841;28;21823;-84
2022/04/14 10:40:15;;;;;;;17.27;8.53;;;23.90;42.70;;;;;;5061470;28;20221;-81
2022/04/14 10:42:52;;;;;;;16.13;8.00;;;23.90;42.70;;;;;;5086964;28;20221;-83
2022/04/14 10:45:23;;;;;;;16.70;8.33;;;24.00;43.50;;;;;;5046859;28;20281;-82
2022/04/14 10:47:50;;;;;;;14.53;8.90;;;24.10;44.30;;;;;;5062872;28;20186;-82
2022/04/14 10:50:23;;;;;;;16.57;8.73;;;24.20;43.80;;;;;;5078085;28;20211;-82
2022/04/14 10:53:12;;;;;;;17.20;9.00;;;24.40;43.90;;;;;;5060507;28;20600;-82
2022/04/14 10:55:46;;;;;;;12.10;7.97;;;24.50;43.40;;;;;;5052582;28;20208;-82
2022/04/14 10:58:29;;;;;;;17.97;9.10;;;24.60;43.60;;;;;;5045141;28;20613;-83
2022/04/14 11:00:56;;;;;;;14.30;7.43;;;24.60;43.60;;;;;;5043916;28;20216;-80
2022/04/14 11:03:46;;;;;;;17.93;7.97;;;24.70;42.70;;;;;;5080320;28;20213;-82
2022/04/14 11:06:42;;;;;;;13.70;7.93;;;24.80;41.80;;;;;;5076415;28;20274;-81
2022/04/14 11:09:38;;;;;;;13.83;7.67;;;24.90;42.50;;;;;;5042262;28;20211;-82
2022/04/14 11:12:23;;;;;;;17.33;7.87;;;25.00;41.20;;;;;;5057537;28;20656;-81
2022/04/14 11:14:59;;;;;;;15.17;6.83;;;25.00;40.80;;;;;;5076996;28;20203;-82
2022/04/14 11:20:54;;;;;;;15.53;7.43;;;25.20;41.70;;;;;;5093724;28;20244;-81
2022/04/14 11:23:28;;;;;;;11.97;5.40;;;25.20;38.70;;;;;;5085676;28;20221;-81
2022/04/14 11:26:13;;;;;;;14.80;7.13;;;25.20;38.60;;;;;;5102045;28;20224;-82
2022/04/14 11:28:56;;;;;;;10.60;5.57;;;25.20;38.70;;;;;;5105541;28;20235;-82
2022/04/14 11:31:25;;;;;;;12.90;6.27;;;25.30;39.40;;;;;;5103782;28;20226;-81
2022/04/14 11:33:57;;;;;;;12.50;6.37;;;25.20;39.10;;;;;;5089929;28;20181;-81
2022/04/14 11:36:38;;;;;;;13.27;6.50;;;25.10;39.10;;;;;;5096013;28;20295;-80
2022/04/14 11:39:07;;;;;;;14.13;6.30;;;25.00;40.10;;;;;;5107156;28;20204;-81
2022/04/14 11:41:54;;;;;;;14.97;6.33;;;24.90;39.30;;;;;;5090158;28;20197;-81
2022/04/14 11:44:34;;;;;;;13.20;6.13;;;24.90;36.80;;;;;;5071541;28;20220;-80
2022/04/14 11:47:03;;;;;;;10.50;5.83;;;24.80;38.80;;;;;;5110495;28;20211;-79
2022/04/14 11:49:32;;;;;;;12.80;5.07;;;24.80;39.60;;;;;;5107656;28;20197;-82
2022/04/14 11:52:02;;;;;;;12.73;5.07;;;24.90;39.30;;;;;;5103755;28;20228;-82
2022/04/14 11:54:29;;;;;;;12.30;5.40;;;24.90;38.60;;;;;;5102215;28;20197;-82
2022/04/14 11:57:20;;;;;;;11.87;6.00;;;25.00;37.90;;;;;;5076099;28;20193;-82
2022/04/14 11:59:53;;;;;;;16.13;7.17;;;25.00;38.50;;;;;;5100302;28;20200;-82
2022/04/14 12:02:22;;;;;;;13.47;6.33;;;25.00;37.70;;;;;;5082046;28;20224;-81
2022/04/14 12:04:54;;;;;;;14.63;6.80;;;25.00;39.10;;;;;;5104883;28;20223;-80
2022/04/14 12:07:30;;;;;;;12.03;6.47;;;25.20;40.20;;;;;;5104585;28;20218;-82
2022/04/14 12:10:05;;;;;;;12.33;6.63;;;25.30;40.00;;;;;;5084473;28;20253;-82
2022/04/14 12:12:37;;;;;;;15.43;6.20;;;25.40;39.70;;;;;;5103615;28;20202;-79
2022/04/14 12:15:07;;;;;;;11.43;6.00;;;25.40;37.60;;;;;;5065792;28;20212;-82
2022/04/14 12:17:36;;;;;;;9.17;5.80;;;25.40;37.70;;;;;;5082915;28;20233;-82
2022/04/14 12:20:06;;;;;;;8.40;4.83;;;25.40;35.80;;;;;;5083416;28;20532;-82
2022/04/14 12:22:36;;;;;;;10.90;4.80;;;25.40;36.50;;;;;;5086822;28;20246;-80
2022/04/14 12:25:10;;;;;;;8.53;4.70;;;25.40;37.50;;;;;;5109131;28;20206;-81
2022/04/14 12:27:48;;;;;;;9.23;5.03;;;25.50;39.30;;;;;;5107346;28;20530;-81
2022/04/14 12:30:16;;;;;;;11.87;6.37;;;25.60;39.80;;;;;;5107082;28;20198;-81
2022/04/14 12:32:48;;;;;;;9.87;5.60;;;25.70;39.60;;;;;;5105854;28;20640;-82
2022/04/14 12:35:41;;;;;;;11.00;5.63;;;25.70;37.50;;;;;;5105780;28;20205;-80
2022/04/14 12:38:25;;;;;;;10.70;6.10;;;25.70;37.70;;;;;;5105317;28;20204;-81
2022/04/14 12:41:04;;;;;;;11.97;5.60;;;25.70;39.00;;;;;;5102003;28;20197;-81
2022/04/14 12:43:40;;;;;;;10.47;5.60;;;25.70;39.20;;;;;;5090751;28;20233;-81
2022/04/14 12:46:38;;;;;;;12.07;5.23;;;25.80;39.20;;;;;;5088270;28;20202;-80
2022/04/14 12:49:08;;;;;;;11.63;5.83;;;25.80;38.20;;;;;;5099947;28;20209;-81
2022/04/14 12:52:03;;;;;;;12.20;5.80;;;25.80;37.90;;;;;;5069520;28;20194;-81
2022/04/14 12:54:31;;;;;;;12.97;5.83;;;25.70;38.20;;;;;;5083332;28;20228;-78